sensor_id;sensor_type;location;lat;lon;timestamp;pressure;altitude;pressure_sealevel;temperature;humidity
21236;BME280;10775;42.678;26.324;2024-03-02T00:00:01;98379.84;;;8.18;100.00
21236;BME280;10775;42.678;26.324;2024-03-02T00:02:39;98370.31;;;8.18;100.00
21236;BME280;10775;42.678;26.324;2024-03-02T00:05:05;98375.41;;;8.23;100.00
21236;BME280;10775;42.678;26.324;2024-03-02T00:07:31;98371.09;;;8.22;100.00
21236;BME280;10775;42.678;26.324;2024-03-02T00:09:57;98385.84;;;8.23;100.00
21236;BME280;10775;42.678;26.324;2024-03-02T00:12:22;98379.75;;;8.24;100.00
21236;BME280;10775;42.678;26.324;2024-03-02T00:14:48;98384.91;;;8.28;100.00
21236;BME280;10775;42.678;26.324;2024-03-02T00:17:17;98382.31;;;8.25;100.00
21236;BME280;10775;42.678;26.324;2024-03-02T00:19:46;98384.97;;;8.22;100.00
21236;BME280;10775;42.678;26.324;2024-03-02T00:22:12;98378.13;;;8.17;100.00
21236;BME280;10775;42.678;26.324;2024-03-02T00:24:38;98379.16;;;8.06;100.00
21236;BME280;10775;42.678;26.324;2024-03-02T00:27:05;98372.50;;;7.86;100.00
21236;BME280;10775;42.678;26.324;2024-03-02T00:29:32;98362.09;;;7.84;100.00
21236;BME280;10775;42.678;26.324;2024-03-02T00:31:58;98352.66;;;7.78;100.00
21236;BME280;10775;42.678;26.324;2024-03-02T00:34:23;98349.03;;;7.87;100.00
21236;BME280;10775;42.678;26.324;2024-03-02T00:36:50;98352.53;;;7.88;100.00
21236;BME280;10775;42.678;26.324;2024-03-02T00:39:16;98357.66;;;7.92;100.00
21236;BME280;10775;42.678;26.324;2024-03-02T00:41:43;98350.84;;;7.85;100.00
21236;BME280;10775;42.678;26.324;2024-03-02T00:44:15;98352.97;;;7.54;100.00
21236;BME280;10775;42.678;26.324;2024-03-02T00:46:42;98340.16;;;7.38;100.00
21236;BME280;10775;42.678;26.324;2024-03-02T00:49:18;98342.78;;;7.37;100.00
21236;BME280;10775;42.678;26.324;2024-03-02T00:51:47;98339.16;;;7.52;100.00
21236;BME280;10775;42.678;26.324;2024-03-02T00:54:25;98340.75;;;7.62;100.00
21236;BME280;10775;42.678;26.324;2024-03-02T00:56:52;98339.72;;;7.72;100.00
21236;BME280;10775;42.678;26.324;2024-03-02T00:59:20;98337.13;;;7.72;100.00
21236;BME280;10775;42.678;26.324;2024-03-02T01:01:45;98327.53;;;7.74;100.00
21236;BME280;10775;42.678;26.324;2024-03-02T01:04:11;98318.97;;;7.66;100.00
21236;BME280;10775;42.678;26.324;2024-03-02T01:06:37;98312.19;;;7.56;100.00
21236;BME280;10775;42.678;26.324;2024-03-02T01:09:03;98311.50;;;7.43;100.00
21236;BME280;10775;42.678;26.324;2024-03-02T01:11:28;98310.59;;;7.46;100.00
21236;BME280;10775;42.678;26.324;2024-03-02T01:13:55;98303.59;;;7.51;100.00
21236;BME280;10775;42.678;26.324;2024-03-02T01:16:20;98304.44;;;7.54;100.00
21236;BME280;10775;42.678;26.324;2024-03-02T01:18:46;98309.53;;;7.59;100.00
21236;BME280;10775;42.678;26.324;2024-03-02T01:21:12;98300.81;;;7.63;100.00
21236;BME280;10775;42.678;26.324;2024-03-02T01:23:37;98306.75;;;7.71;100.00
21236;BME280;10775;42.678;26.324;2024-03-02T01:26:03;98301.34;;;7.87;100.00
21236;BME280;10775;42.678;26.324;2024-03-02T01:28:28;98307.44;;;7.86;100.00
21236;BME280;10775;42.678;26.324;2024-03-02T01:30:54;98309.38;;;7.73;100.00
21236;BME280;10775;42.678;26.324;2024-03-02T01:33:20;98304.50;;;7.48;100.00
21236;BME280;10775;42.678;26.324;2024-03-02T01:35:45;98304.63;;;7.39;100.00
21236;BME280;10775;42.678;26.324;2024-03-02T01:38:11;98304.72;;;7.30;100.00
21236;BME280;10775;42.678;26.324;2024-03-02T01:40:37;98296.75;;;7.44;100.00
21236;BME280;10775;42.678;26.324;2024-03-02T01:43:07;98297.47;;;7.53;100.00
21236;BME280;10775;42.678;26.324;2024-03-02T01:45:33;98293.97;;;7.57;100.00
21236;BME280;10775;42.678;26.324;2024-03-02T01:47:59;98304.22;;;7.68;100.00
21236;BME280;10775;42.678;26.324;2024-03-02T01:50:31;98298.91;;;7.77;100.00
21236;BME280;10775;42.678;26.324;2024-03-02T01:52:57;98291.88;;;7.82;100.00
21236;BME280;10775;42.678;26.324;2024-03-02T01:55:22;98295.28;;;7.84;100.00
21236;BME280;10775;42.678;26.324;2024-03-02T01:57:51;98296.06;;;7.91;100.00
21236;BME280;10775;42.678;26.324;2024-03-02T02:00:18;98296.88;;;7.95;100.00
21236;BME280;10775;42.678;26.324;2024-03-02T02:02:45;98291.66;;;7.96;100.00
21236;BME280;10775;42.678;26.324;2024-03-02T02:05:11;98283.84;;;7.95;100.00
21236;BME280;10775;42.678;26.324;2024-03-02T02:07:36;98278.66;;;7.95;100.00
21236;BME280;10775;42.678;26.324;2024-03-02T02:10:02;98282.28;;;7.84;100.00
21236;BME280;10775;42.678;26.324;2024-03-02T02:12:27;98275.47;;;7.76;100.00
21236;BME280;10775;42.678;26.324;2024-03-02T02:14:53;98274.06;;;7.55;100.00
21236;BME280;10775;42.678;26.324;2024-03-02T02:17:19;98276.13;;;7.31;100.00
21236;BME280;10775;42.678;26.324;2024-03-02T02:19:44;98272.78;;;7.20;100.00
21236;BME280;10775;42.678;26.324;2024-03-02T02:22:10;98279.72;;;7.18;100.00
21236;BME280;10775;42.678;26.324;2024-03-02T02:24:39;98275.38;;;7.22;100.00
21236;BME280;10775;42.678;26.324;2024-03-02T02:27:05;98280.63;;;7.17;100.00
21236;BME280;10775;42.678;26.324;2024-03-02T02:29:30;98287.59;;;7.15;100.00
21236;BME280;10775;42.678;26.324;2024-03-02T02:31:56;98294.53;;;7.14;100.00
21236;BME280;10775;42.678;26.324;2024-03-02T02:34:21;98292.75;;;7.18;100.00
21236;BME280;10775;42.678;26.324;2024-03-02T02:36:47;98298.78;;;7.20;100.00
21236;BME280;10775;42.678;26.324;2024-03-02T02:39:15;98298.72;;;7.26;100.00
21236;BME280;10775;42.678;26.324;2024-03-02T02:41:41;98307.38;;;7.27;100.00
21236;BME280;10775;42.678;26.324;2024-03-02T02:44:07;98312.44;;;7.36;100.00
21236;BME280;10775;42.678;26.324;2024-03-02T02:46:32;98317.59;;;7.40;100.00
21236;BME280;10775;42.678;26.324;2024-03-02T02:48:58;98321.91;;;7.43;100.00
21236;BME280;10775;42.678;26.324;2024-03-02T02:51:23;98319.25;;;7.46;100.00
21236;BME280;10775;42.678;26.324;2024-03-02T02:53:51;98319.25;;;7.48;100.00
21236;BME280;10775;42.678;26.324;2024-03-02T02:56:16;98307.88;;;7.55;100.00
21236;BME280;10775;42.678;26.324;2024-03-02T02:58:42;98313.03;;;7.58;100.00
21236;BME280;10775;42.678;26.324;2024-03-02T03:01:08;98311.38;;;7.51;100.00
21236;BME280;10775;42.678;26.324;2024-03-02T03:03:33;98307.84;;;7.58;100.00
21236;BME280;10775;42.678;26.324;2024-03-02T03:05:59;98317.28;;;7.65;100.00
21236;BME280;10775;42.678;26.324;2024-03-02T03:08:24;98313.72;;;7.72;100.00
21236;BME280;10775;42.678;26.324;2024-03-02T03:10:50;98311.91;;;7.74;100.00
21236;BME280;10775;42.678;26.324;2024-03-02T03:13:15;98302.50;;;7.66;100.00
21236;BME280;10775;42.678;26.324;2024-03-02T03:15:41;98303.53;;;7.57;100.00
21236;BME280;10775;42.678;26.324;2024-03-02T03:18:06;98310.53;;;7.52;100.00
21236;BME280;10775;42.678;26.324;2024-03-02T03:20:33;98316.53;;;7.54;100.00
21236;BME280;10775;42.678;26.324;2024-03-02T03:22:59;98319.88;;;7.65;100.00
21236;BME280;10775;42.678;26.324;2024-03-02T03:25:24;98324.13;;;7.72;100.00
21236;BME280;10775;42.678;26.324;2024-03-02T03:27:50;98330.13;;;7.76;100.00
21236;BME280;10775;42.678;26.324;2024-03-02T03:30:17;98332.72;;;7.77;100.00
21236;BME280;10775;42.678;26.324;2024-03-02T03:32:43;98334.47;;;7.75;100.00
21236;BME280;10775;42.678;26.324;2024-03-02T03:35:09;98334.53;;;7.69;100.00
21236;BME280;10775;42.678;26.324;2024-03-02T03:37:34;98333.72;;;7.67;100.00
21236;BME280;10775;42.678;26.324;2024-03-02T03:40:01;98344.16;;;7.66;100.00
21236;BME280;10775;42.678;26.324;2024-03-02T03:42:26;98339.75;;;7.69;100.00
21236;BME280;10775;42.678;26.324;2024-03-02T03:44:52;98329.59;;;7.52;100.00
21236;BME280;10775;42.678;26.324;2024-03-02T03:47:17;98333.91;;;7.53;100.00
21236;BME280;10775;42.678;26.324;2024-03-02T03:49:43;98317.50;;;7.48;100.00
21236;BME280;10775;42.678;26.324;2024-03-02T03:52:09;98324.50;;;7.45;100.00
21236;BME280;10775;42.678;26.324;2024-03-02T03:54:34;98314.94;;;7.47;100.00
21236;BME280;10775;42.678;26.324;2024-03-02T03:57:02;98307.13;;;7.44;100.00
21236;BME280;10775;42.678;26.324;2024-03-02T03:59:27;98307.13;;;7.44;100.00
21236;BME280;10775;42.678;26.324;2024-03-02T04:01:53;98296.69;;;7.48;100.00
21236;BME280;10775;42.678;26.324;2024-03-02T04:04:18;98293.06;;;7.60;100.00
21236;BME280;10775;42.678;26.324;2024-03-02T04:06:44;98292.13;;;7.66;100.00
21236;BME280;10775;42.678;26.324;2024-03-02T04:09:09;98283.44;;;7.65;100.00
21236;BME280;10775;42.678;26.324;2024-03-02T04:11:35;98273.94;;;7.62;100.00
21236;BME280;10775;42.678;26.324;2024-03-02T04:14:00;98266.09;;;7.64;100.00
21236;BME280;10775;42.678;26.324;2024-03-02T04:16:26;98268.63;;;7.69;100.00
21236;BME280;10775;42.678;26.324;2024-03-02T04:18:51;98269.53;;;7.68;100.00
21236;BME280;10775;42.678;26.324;2024-03-02T04:21:17;98272.97;;;7.70;100.00
21236;BME280;10775;42.678;26.324;2024-03-02T04:23:42;98279.84;;;7.75;100.00
21236;BME280;10775;42.678;26.324;2024-03-02T04:26:08;98285.91;;;7.74;100.00
21236;BME280;10775;42.678;26.324;2024-03-02T04:28:33;98294.50;;;7.79;100.00
21236;BME280;10775;42.678;26.324;2024-03-02T04:30:59;98287.81;;;7.65;100.00
21236;BME280;10775;42.678;26.324;2024-03-02T04:33:24;98290.63;;;7.46;100.00
21236;BME280;10775;42.678;26.324;2024-03-02T04:35:49;98289.78;;;7.47;100.00
21236;BME280;10775;42.678;26.324;2024-03-02T04:38:15;98293.13;;;7.57;100.00
21236;BME280;10775;42.678;26.324;2024-03-02T04:40:40;98286.13;;;7.59;100.00
21236;BME280;10775;42.678;26.324;2024-03-02T04:43:06;98281.88;;;7.55;100.00
21236;BME280;10775;42.678;26.324;2024-03-02T04:45:32;98281.13;;;7.47;100.00
21236;BME280;10775;42.678;26.324;2024-03-02T04:47:57;98280.22;;;7.46;100.00
21236;BME280;10775;42.678;26.324;2024-03-02T04:50:23;98283.72;;;7.45;100.00
21236;BME280;10775;42.678;26.324;2024-03-02T04:52:48;98281.00;;;7.54;100.00
21236;BME280;10775;42.678;26.324;2024-03-02T04:55:14;98288.66;;;7.65;100.00
21236;BME280;10775;42.678;26.324;2024-03-02T04:57:55;98289.44;;;7.70;100.00
21236;BME280;10775;42.678;26.324;2024-03-02T05:00:21;98288.53;;;7.73;100.00
21236;BME280;10775;42.678;26.324;2024-03-02T05:02:47;98292.06;;;7.70;100.00
21236;BME280;10775;42.678;26.324;2024-03-02T05:05:12;98293.81;;;7.70;100.00
21236;BME280;10775;42.678;26.324;2024-03-02T05:07:39;98299.81;;;7.73;100.00
21236;BME280;10775;42.678;26.324;2024-03-02T05:10:06;98303.19;;;7.78;100.00
21236;BME280;10775;42.678;26.324;2024-03-02T05:12:31;98323.06;;;7.84;100.00
21236;BME280;10775;42.678;26.324;2024-03-02T05:15:19;98318.75;;;7.83;100.00
21236;BME280;10775;42.678;26.324;2024-03-02T05:17:46;98329.13;;;7.84;100.00
21236;BME280;10775;42.678;26.324;2024-03-02T05:20:12;98335.22;;;7.82;100.00
21236;BME280;10775;42.678;26.324;2024-03-02T05:22:37;98347.28;;;7.89;100.00
21236;BME280;10775;42.678;26.324;2024-03-02T05:25:04;98354.13;;;7.95;100.00
21236;BME280;10775;42.678;26.324;2024-03-02T05:27:30;98355.03;;;7.95;100.00
21236;BME280;10775;42.678;26.324;2024-03-02T05:29:56;98363.75;;;7.90;100.00
21236;BME280;10775;42.678;26.324;2024-03-02T05:32:21;98373.25;;;7.94;100.00
21236;BME280;10775;42.678;26.324;2024-03-02T05:34:47;98377.56;;;7.95;100.00
21236;BME280;10775;42.678;26.324;2024-03-02T05:37:12;98378.50;;;7.91;100.00
21236;BME280;10775;42.678;26.324;2024-03-02T05:39:38;98369.06;;;7.85;100.00
21236;BME280;10775;42.678;26.324;2024-03-02T05:42:03;98362.22;;;7.76;100.00
21236;BME280;10775;42.678;26.324;2024-03-02T05:44:29;98356.94;;;7.82;100.00
21236;BME280;10775;42.678;26.324;2024-03-02T05:46:55;98354.34;;;7.79;100.00
21236;BME280;10775;42.678;26.324;2024-03-02T05:49:20;98359.56;;;7.79;100.00
21236;BME280;10775;42.678;26.324;2024-03-02T05:51:46;98348.25;;;7.83;100.00
21236;BME280;10775;42.678;26.324;2024-03-02T05:54:11;98350.75;;;7.90;100.00
21236;BME280;10775;42.678;26.324;2024-03-02T05:56:37;98350.72;;;7.91;100.00
21236;BME280;10775;42.678;26.324;2024-03-02T05:59:02;98347.31;;;7.88;100.00
21236;BME280;10775;42.678;26.324;2024-03-02T06:01:28;98341.97;;;7.97;100.00
21236;BME280;10775;42.678;26.324;2024-03-02T06:03:57;98349.72;;;8.03;100.00
21236;BME280;10775;42.678;26.324;2024-03-02T06:06:24;98344.34;;;8.12;100.00
21236;BME280;10775;42.678;26.324;2024-03-02T06:08:50;98335.72;;;8.09;100.00
21236;BME280;10775;42.678;26.324;2024-03-02T06:11:16;98332.22;;;8.11;100.00
21236;BME280;10775;42.678;26.324;2024-03-02T06:13:41;98323.50;;;8.14;100.00
21236;BME280;10775;42.678;26.324;2024-03-02T06:16:07;98314.91;;;8.07;100.00
21236;BME280;10775;42.678;26.324;2024-03-02T06:18:34;98311.34;;;8.14;100.00
21236;BME280;10775;42.678;26.324;2024-03-02T06:20:59;98305.22;;;8.15;100.00
21236;BME280;10775;42.678;26.324;2024-03-02T06:23:26;98307.09;;;8.09;100.00
21236;BME280;10775;42.678;26.324;2024-03-02T06:25:52;98302.00;;;8.01;100.00
21236;BME280;10775;42.678;26.324;2024-03-02T06:28:17;98304.38;;;8.15;100.00
21236;BME280;10775;42.678;26.324;2024-03-02T06:30:43;98300.72;;;8.25;100.00
21236;BME280;10775;42.678;26.324;2024-03-02T06:33:09;98297.06;;;8.37;100.00
21236;BME280;10775;42.678;26.324;2024-03-02T06:35:34;98290.03;;;8.43;100.00
21236;BME280;10775;42.678;26.324;2024-03-02T06:38:01;98287.97;;;8.61;100.00
21236;BME280;10775;42.678;26.324;2024-03-02T06:40:26;98289.75;;;8.59;100.00
21236;BME280;10775;42.678;26.324;2024-03-02T06:42:52;98274.94;;;8.62;100.00
21236;BME280;10775;42.678;26.324;2024-03-02T06:45:17;98269.19;;;8.43;100.00
21236;BME280;10775;42.678;26.324;2024-03-02T06:47:42;98265.66;;;8.47;100.00
21236;BME280;10775;42.678;26.324;2024-03-02T06:50:08;98251.84;;;8.44;100.00
21236;BME280;10775;42.678;26.324;2024-03-02T06:52:34;98250.00;;;8.49;100.00
21236;BME280;10775;42.678;26.324;2024-03-02T06:55:00;98247.97;;;8.63;100.00
21236;BME280;10775;42.678;26.324;2024-03-02T06:57:25;98265.28;;;8.67;100.00
21236;BME280;10775;42.678;26.324;2024-03-02T06:59:51;98272.06;;;8.76;100.00
21236;BME280;10775;42.678;26.324;2024-03-02T07:02:19;98274.34;;;8.93;100.00
21236;BME280;10775;42.678;26.324;2024-03-02T07:04:45;98268.91;;;9.05;100.00
21236;BME280;10775;42.678;26.324;2024-03-02T07:07:10;98291.31;;;9.12;100.00
21236;BME280;10775;42.678;26.324;2024-03-02T07:09:36;98287.00;;;9.11;100.00
21236;BME280;10775;42.678;26.324;2024-03-02T07:12:01;98293.16;;;9.09;100.00
21236;BME280;10775;42.678;26.324;2024-03-02T07:14:27;98289.78;;;9.04;100.00
21236;BME280;10775;42.678;26.324;2024-03-02T07:17:12;98275.06;;;9.01;100.00
21236;BME280;10775;42.678;26.324;2024-03-02T07:19:38;98282.13;;;8.95;100.00
21236;BME280;10775;42.678;26.324;2024-03-02T07:22:07;98290.56;;;9.07;100.00
21236;BME280;10775;42.678;26.324;2024-03-02T07:24:43;98287.09;;;9.08;100.00
21236;BME280;10775;42.678;26.324;2024-03-02T07:27:09;98293.31;;;9.01;100.00
21236;BME280;10775;42.678;26.324;2024-03-02T07:29:35;98301.97;;;9.03;100.00
21236;BME280;10775;42.678;26.324;2024-03-02T07:32:01;98301.69;;;9.17;100.00
21236;BME280;10775;42.678;26.324;2024-03-02T07:34:26;98296.22;;;9.29;100.00
21236;BME280;10775;42.678;26.324;2024-03-02T07:36:52;98305.72;;;9.33;100.00
21236;BME280;10775;42.678;26.324;2024-03-02T07:39:18;98299.25;;;9.50;100.00
21236;BME280;10775;42.678;26.324;2024-03-02T07:41:45;98303.41;;;9.58;100.00
21236;BME280;10775;42.678;26.324;2024-03-02T07:44:11;98302.69;;;9.52;100.00
21236;BME280;10775;42.678;26.324;2024-03-02T07:46:41;98297.66;;;9.43;100.00
21236;BME280;10775;42.678;26.324;2024-03-02T07:49:06;98288.78;;;9.51;100.00
21236;BME280;10775;42.678;26.324;2024-03-02T07:51:32;98292.03;;;9.61;100.00
21236;BME280;10775;42.678;26.324;2024-03-02T07:53:57;98283.09;;;9.73;100.00
21236;BME280;10775;42.678;26.324;2024-03-02T07:56:23;98299.31;;;9.87;100.00
21236;BME280;10775;42.678;26.324;2024-03-02T07:58:48;98311.44;;;9.90;100.00
21236;BME280;10775;42.678;26.324;2024-03-02T08:01:14;98308.88;;;9.87;100.00
21236;BME280;10775;42.678;26.324;2024-03-02T08:03:40;98309.13;;;9.76;100.00
21236;BME280;10775;42.678;26.324;2024-03-02T08:06:06;98315.25;;;9.75;100.00
21236;BME280;10775;42.678;26.324;2024-03-02T08:08:31;98307.19;;;9.84;100.00
21236;BME280;10775;42.678;26.324;2024-03-02T08:10:57;98305.41;;;9.86;100.00
21236;BME280;10775;42.678;26.324;2024-03-02T08:13:22;98310.44;;;9.95;100.00
21236;BME280;10775;42.678;26.324;2024-03-02T08:15:48;98307.00;;;9.92;100.00
21236;BME280;10775;42.678;26.324;2024-03-02T08:18:13;98316.47;;;9.97;100.00
21236;BME280;10775;42.678;26.324;2024-03-02T08:20:40;98313.13;;;9.92;100.00
21236;BME280;10775;42.678;26.324;2024-03-02T08:23:05;98313.97;;;9.93;100.00
21236;BME280;10775;42.678;26.324;2024-03-02T08:25:31;98308.69;;;9.94;100.00
21236;BME280;10775;42.678;26.324;2024-03-02T08:27:57;98312.28;;;9.90;100.00
21236;BME280;10775;42.678;26.324;2024-03-02T08:30:23;98323.25;;;10.05;100.00
21236;BME280;10775;42.678;26.324;2024-03-02T08:32:48;98319.84;;;10.02;100.00
21236;BME280;10775;42.678;26.324;2024-03-02T08:35:14;98323.41;;;9.98;100.00
21236;BME280;10775;42.678;26.324;2024-03-02T08:37:41;98315.22;;;10.14;100.00
21236;BME280;10775;42.678;26.324;2024-03-02T08:40:07;98314.09;;;10.24;100.00
21236;BME280;10775;42.678;26.324;2024-03-02T08:42:33;98340.31;;;10.19;100.00
21236;BME280;10775;42.678;26.324;2024-03-02T08:44:59;98325.66;;;10.14;100.00
21236;BME280;10775;42.678;26.324;2024-03-02T08:47:26;98317.16;;;10.04;100.00
21236;BME280;10775;42.678;26.324;2024-03-02T08:49:52;98328.72;;;9.95;100.00
21236;BME280;10775;42.678;26.324;2024-03-02T08:52:17;98327.69;;;10.01;100.00
21236;BME280;10775;42.678;26.324;2024-03-02T08:54:43;98341.97;;;9.86;100.00
21236;BME280;10775;42.678;26.324;2024-03-02T08:57:08;98329.91;;;9.80;100.00
21236;BME280;10775;42.678;26.324;2024-03-02T08:59:34;98321.16;;;9.82;100.00
21236;BME280;10775;42.678;26.324;2024-03-02T09:01:59;98335.09;;;9.82;100.00
21236;BME280;10775;42.678;26.324;2024-03-02T09:04:25;98348.28;;;9.76;100.00
21236;BME280;10775;42.678;26.324;2024-03-02T09:06:50;98357.78;;;9.78;100.00
21236;BME280;10775;42.678;26.324;2024-03-02T09:09:16;98344.63;;;9.83;100.00
21236;BME280;10775;42.678;26.324;2024-03-02T09:11:41;98347.59;;;9.66;100.00
21236;BME280;10775;42.678;26.324;2024-03-02T09:14:07;98335.22;;;9.76;100.00
21236;BME280;10775;42.678;26.324;2024-03-02T09:16:32;98339.41;;;9.85;100.00
21236;BME280;10775;42.678;26.324;2024-03-02T09:18:58;98351.47;;;9.89;100.00
21236;BME280;10775;42.678;26.324;2024-03-02T09:21:23;98341.69;;;9.98;100.00
21236;BME280;10775;42.678;26.324;2024-03-02T09:23:50;98335.44;;;10.06;100.00
21236;BME280;10775;42.678;26.324;2024-03-02T09:26:16;98332.75;;;10.07;100.00
21236;BME280;10775;42.678;26.324;2024-03-02T09:28:44;98316.75;;;9.85;100.00
21236;BME280;10775;42.678;26.324;2024-03-02T09:31:10;98317.59;;;9.87;100.00
21236;BME280;10775;42.678;26.324;2024-03-02T09:33:35;98335.06;;;9.84;100.00
21236;BME280;10775;42.678;26.324;2024-03-02T09:36:01;98317.81;;;9.76;100.00
21236;BME280;10775;42.678;26.324;2024-03-02T09:38:26;98313.13;;;9.92;100.00
21236;BME280;10775;42.678;26.324;2024-03-02T09:40:51;98332.53;;;10.18;100.00
21236;BME280;10775;42.678;26.324;2024-03-02T09:43:17;98326.22;;;10.27;100.00
21236;BME280;10775;42.678;26.324;2024-03-02T09:45:42;98320.69;;;10.40;100.00
21236;BME280;10775;42.678;26.324;2024-03-02T09:48:10;98313.28;;;10.58;100.00
21236;BME280;10775;42.678;26.324;2024-03-02T09:50:35;98322.03;;;10.57;100.00
21236;BME280;10775;42.678;26.324;2024-03-02T09:53:01;98329.22;;;10.49;100.00
21236;BME280;10775;42.678;26.324;2024-03-02T09:55:27;98323.19;;;10.45;100.00
21236;BME280;10775;42.678;26.324;2024-03-02T09:57:53;98324.72;;;10.54;100.00
21236;BME280;10775;42.678;26.324;2024-03-02T10:00:18;98329.16;;;10.50;100.00
21236;BME280;10775;42.678;26.324;2024-03-02T10:02:44;98331.09;;;10.42;100.00
21236;BME280;10775;42.678;26.324;2024-03-02T10:05:10;98328.38;;;10.47;100.00
21236;BME280;10775;42.678;26.324;2024-03-02T10:07:36;98311.66;;;10.54;100.00
21236;BME280;10775;42.678;26.324;2024-03-02T10:10:22;98317.53;;;10.62;100.00
21236;BME280;10775;42.678;26.324;2024-03-02T10:12:47;98311.28;;;10.68;100.00
21236;BME280;10775;42.678;26.324;2024-03-02T10:15:13;98317.25;;;10.73;100.00
21236;BME280;10775;42.678;26.324;2024-03-02T10:17:38;98312.56;;;10.85;100.00
21236;BME280;10775;42.678;26.324;2024-03-02T10:20:23;98313.50;;;10.83;100.00
21236;BME280;10775;42.678;26.324;2024-03-02T10:22:49;98315.06;;;10.88;100.00
21236;BME280;10775;42.678;26.324;2024-03-02T10:25:33;98314.91;;;10.62;100.00
21236;BME280;10775;42.678;26.324;2024-03-02T10:28:00;98312.91;;;10.39;100.00
21236;BME280;10775;42.678;26.324;2024-03-02T10:30:29;98313.16;;;10.27;100.00
21236;BME280;10775;42.678;26.324;2024-03-02T10:32:55;98319.06;;;10.36;100.00
21236;BME280;10775;42.678;26.324;2024-03-02T10:35:24;98311.13;;;10.39;100.00
21236;BME280;10775;42.678;26.324;2024-03-02T10:37:52;98295.72;;;10.63;100.00
21236;BME280;10775;42.678;26.324;2024-03-02T10:40:18;98300.38;;;10.84;100.00
21236;BME280;10775;42.678;26.324;2024-03-02T10:42:46;98285.97;;;11.01;100.00
21236;BME280;10775;42.678;26.324;2024-03-02T10:45:15;98286.41;;;10.85;100.00
21236;BME280;10775;42.678;26.324;2024-03-02T10:47:42;98278.09;;;10.71;100.00
21236;BME280;10775;42.678;26.324;2024-03-02T10:50:08;98271.13;;;10.70;100.00
21236;BME280;10775;42.678;26.324;2024-03-02T10:52:37;98270.28;;;11.01;100.00
21236;BME280;10775;42.678;26.324;2024-03-02T10:55:03;98271.06;;;11.34;100.00
21236;BME280;10775;42.678;26.324;2024-03-02T10:57:58;98270.59;;;11.51;100.00
21236;BME280;10775;42.678;26.324;2024-03-02T11:00:25;98274.56;;;11.63;100.00
21236;BME280;10775;42.678;26.324;2024-03-02T11:03:06;98272.38;;;11.49;100.00
21236;BME280;10775;42.678;26.324;2024-03-02T11:05:34;98267.88;;;11.54;100.00
21236;BME280;10775;42.678;26.324;2024-03-02T11:08:02;98265.25;;;11.24;100.00
21236;BME280;10775;42.678;26.324;2024-03-02T11:10:34;98260.47;;;11.39;100.00
21236;BME280;10775;42.678;26.324;2024-03-02T11:13:05;98260.50;;;11.67;100.00
21236;BME280;10775;42.678;26.324;2024-03-02T11:15:34;98260.06;;;11.81;100.00
21236;BME280;10775;42.678;26.324;2024-03-02T11:18:05;98266.88;;;11.58;100.00
21236;BME280;10775;42.678;26.324;2024-03-02T11:20:38;98255.50;;;11.59;100.00
21236;BME280;10775;42.678;26.324;2024-03-02T11:23:08;98250.94;;;11.66;100.00
21236;BME280;10775;42.678;26.324;2024-03-02T11:25:33;98246.88;;;11.84;100.00
21236;BME280;10775;42.678;26.324;2024-03-02T11:28:00;98243.09;;;11.94;100.00
21236;BME280;10775;42.678;26.324;2024-03-02T11:35:36;98239.03;;;11.84;100.00
21236;BME280;10775;42.678;26.324;2024-03-02T11:38:02;98226.00;;;11.81;100.00
21236;BME280;10775;42.678;26.324;2024-03-02T11:40:29;98232.28;;;11.75;100.00
21236;BME280;10775;42.678;26.324;2024-03-02T11:42:55;98235.28;;;11.63;100.00
21236;BME280;10775;42.678;26.324;2024-03-02T11:45:24;98234.44;;;11.62;100.00
21236;BME280;10775;42.678;26.324;2024-03-02T11:47:50;98217.19;;;11.57;100.00
21236;BME280;10775;42.678;26.324;2024-03-02T11:50:40;98209.44;;;11.80;100.00
21236;BME280;10775;42.678;26.324;2024-03-02T11:53:06;98212.75;;;11.85;100.00
21236;BME280;10775;42.678;26.324;2024-03-02T11:55:35;98220.41;;;11.65;100.00
21236;BME280;10775;42.678;26.324;2024-03-02T11:58:03;98221.66;;;11.53;100.00
21236;BME280;10775;42.678;26.324;2024-03-02T12:00:29;98215.59;;;11.51;100.00
21236;BME280;10775;42.678;26.324;2024-03-02T12:03:02;98209.19;;;11.61;100.00
21236;BME280;10775;42.678;26.324;2024-03-02T12:05:29;98205.66;;;11.62;100.00
21236;BME280;10775;42.678;26.324;2024-03-02T12:07:59;98200.47;;;11.61;100.00
21236;BME280;10775;42.678;26.324;2024-03-02T12:10:26;98192.56;;;11.62;100.00
21236;BME280;10775;42.678;26.324;2024-03-02T12:12:58;98200.63;;;11.56;100.00
21236;BME280;10775;42.678;26.324;2024-03-02T12:15:31;98204.75;;;11.63;100.00
21236;BME280;10775;42.678;26.324;2024-03-02T12:17:58;98211.66;;;11.66;100.00
21236;BME280;10775;42.678;26.324;2024-03-02T12:20:25;98210.97;;;11.59;100.00
21236;BME280;10775;42.678;26.324;2024-03-02T12:22:52;98210.00;;;11.63;100.00
21236;BME280;10775;42.678;26.324;2024-03-02T12:25:19;98216.69;;;11.44;100.00
21236;BME280;10775;42.678;26.324;2024-03-02T12:27:46;98217.25;;;11.25;100.00
21236;BME280;10775;42.678;26.324;2024-03-02T12:30:12;98217.06;;;11.31;100.00
21236;BME280;10775;42.678;26.324;2024-03-02T12:32:42;98212.03;;;11.25;100.00
21236;BME280;10775;42.678;26.324;2024-03-02T12:35:08;98209.56;;;11.19;100.00
21236;BME280;10775;42.678;26.324;2024-03-02T12:37:42;98208.00;;;11.14;100.00
21236;BME280;10775;42.678;26.324;2024-03-02T12:40:10;98218.00;;;11.29;100.00
21236;BME280;10775;42.678;26.324;2024-03-02T12:42:36;98216.78;;;11.41;100.00
21236;BME280;10775;42.678;26.324;2024-03-02T12:45:01;98209.56;;;11.49;100.00
21236;BME280;10775;42.678;26.324;2024-03-02T12:47:27;98212.06;;;11.52;100.00
21236;BME280;10775;42.678;26.324;2024-03-02T12:49:52;98218.97;;;11.26;100.00